sensor_id;sensor_type;location;lat;lon;timestamp;pressure;altitude;pressure_sealevel;temperature;humidity
56825;BME280;42705;50.326;18.772;2023-05-23T00:05:15;98200.21;;;15.03;48.69
56825;BME280;42705;50.326;18.772;2023-05-23T00:10:38;98200.18;;;15.02;48.85
56825;BME280;42705;50.326;18.772;2023-05-23T00:16:00;98196.90;;;15.00;49.03
56825;BME280;42705;50.326;18.772;2023-05-23T00:21:23;98192.80;;;14.98;49.07
56825;BME280;42705;50.326;18.772;2023-05-23T00:26:45;98191.39;;;14.95;49.48
56825;BME280;42705;50.326;18.772;2023-05-23T00:32:07;98186.34;;;14.94;49.36
56825;BME280;42705;50.326;18.772;2023-05-23T00:37:29;98183.48;;;14.93;49.45
56825;BME280;42705;50.326;18.772;2023-05-23T00:42:53;98184.94;;;14.88;49.50
56825;BME280;42705;50.326;18.772;2023-05-23T00:48:15;98178.81;;;14.82;49.59
56825;BME280;42705;50.326;18.772;2023-05-23T00:53:37;98179.14;;;14.77;49.93
56825;BME280;42705;50.326;18.772;2023-05-23T00:58:59;98185.62;;;14.72;49.94
56825;BME280;42705;50.326;18.772;2023-05-23T01:04:21;98190.76;;;14.70;50.16
56825;BME280;42705;50.326;18.772;2023-05-23T01:09:49;98186.44;;;14.68;50.44
56825;BME280;42705;50.326;18.772;2023-05-23T01:15:14;98188.00;;;14.65;50.51
56825;BME280;42705;50.326;18.772;2023-05-23T01:20:47;98189.34;;;14.62;50.71
56825;BME280;42705;50.326;18.772;2023-05-23T01:26:20;98185.14;;;14.57;50.93
56825;BME280;42705;50.326;18.772;2023-05-23T01:31:45;98181.67;;;14.52;50.89
56825;BME280;42705;50.326;18.772;2023-05-23T01:37:13;98177.09;;;14.48;51.07
56825;BME280;42705;50.326;18.772;2023-05-23T01:42:40;98177.79;;;14.44;51.29
56825;BME280;42705;50.326;18.772;2023-05-23T01:48:02;98178.33;;;14.40;51.34
56825;BME280;42705;50.326;18.772;2023-05-23T01:53:24;98179.77;;;14.35;51.60
56825;BME280;42705;50.326;18.772;2023-05-23T01:58:47;98179.84;;;14.27;51.67
56825;BME280;42705;50.326;18.772;2023-05-23T02:04:09;98177.48;;;14.22;51.77
56825;BME280;42705;50.326;18.772;2023-05-23T02:09:31;98177.86;;;14.15;51.99
56825;BME280;42705;50.326;18.772;2023-05-23T02:14:53;98172.19;;;14.09;52.17
56825;BME280;42705;50.326;18.772;2023-05-23T02:20:15;98169.86;;;14.03;52.23
56825;BME280;42705;50.326;18.772;2023-05-23T02:25:40;98169.16;;;13.98;52.52
56825;BME280;42705;50.326;18.772;2023-05-23T02:31:03;98167.62;;;13.93;52.48
56825;BME280;42705;50.326;18.772;2023-05-23T02:36:25;98165.39;;;13.83;52.50
56825;BME280;42705;50.326;18.772;2023-05-23T02:41:47;98157.88;;;13.76;52.79
56825;BME280;42705;50.326;18.772;2023-05-23T02:47:09;98160.83;;;13.70;52.98
56825;BME280;42705;50.326;18.772;2023-05-23T02:52:31;98158.11;;;13.64;53.04
56825;BME280;42705;50.326;18.772;2023-05-23T02:57:54;98162.42;;;13.60;53.36
56825;BME280;42705;50.326;18.772;2023-05-23T03:03:17;98158.39;;;13.56;53.49
56825;BME280;42705;50.326;18.772;2023-05-23T03:08:40;98156.52;;;13.56;53.56
56825;BME280;42705;50.326;18.772;2023-05-23T03:14:02;98161.34;;;13.57;53.77
56825;BME280;42705;50.326;18.772;2023-05-23T03:19:24;98152.72;;;13.57;53.92
56825;BME280;42705;50.326;18.772;2023-05-23T03:24:46;98147.89;;;13.58;54.11
56825;BME280;42705;50.326;18.772;2023-05-23T03:30:09;98143.64;;;13.57;54.09
56825;BME280;42705;50.326;18.772;2023-05-23T03:35:31;98136.70;;;13.54;54.15
56825;BME280;42705;50.326;18.772;2023-05-23T03:40:53;98134.61;;;13.53;54.10
56825;BME280;42705;50.326;18.772;2023-05-23T03:46:16;98131.21;;;13.55;54.16
56825;BME280;42705;50.326;18.772;2023-05-23T03:51:38;98131.14;;;13.58;54.32
56825;BME280;42705;50.326;18.772;2023-05-23T03:57:01;98128.66;;;13.64;54.34
56825;BME280;42705;50.326;18.772;2023-05-23T04:02:24;98130.83;;;13.70;54.33
56825;BME280;42705;50.326;18.772;2023-05-23T04:07:46;98127.84;;;13.76;54.35
56825;BME280;42705;50.326;18.772;2023-05-23T04:13:09;98127.48;;;13.83;54.28
56825;BME280;42705;50.326;18.772;2023-05-23T04:18:32;98131.43;;;13.88;54.20
56825;BME280;42705;50.326;18.772;2023-05-23T04:23:54;98132.45;;;13.94;54.35
56825;BME280;42705;50.326;18.772;2023-05-23T04:29:17;98130.50;;;14.00;54.58
56825;BME280;42705;50.326;18.772;2023-05-23T04:34:39;98129.36;;;14.07;54.67
56825;BME280;42705;50.326;18.772;2023-05-23T04:40:02;98125.55;;;14.15;54.81
56825;BME280;42705;50.326;18.772;2023-05-23T04:45:36;98122.26;;;14.24;54.88
56825;BME280;42705;50.326;18.772;2023-05-23T04:51:05;98122.10;;;14.33;54.76
56825;BME280;42705;50.326;18.772;2023-05-23T04:56:30;98118.38;;;14.43;54.64
56825;BME280;42705;50.326;18.772;2023-05-23T05:01:52;98117.51;;;14.57;54.83
56825;BME280;42705;50.326;18.772;2023-05-23T05:07:15;98112.81;;;14.73;54.94
56825;BME280;42705;50.326;18.772;2023-05-23T05:12:38;98117.75;;;14.88;54.67
56825;BME280;42705;50.326;18.772;2023-05-23T05:18:00;98109.01;;;15.03;54.71
56825;BME280;42705;50.326;18.772;2023-05-23T05:23:26;98103.64;;;15.23;54.73
56825;BME280;42705;50.326;18.772;2023-05-23T05:28:52;98099.48;;;15.40;54.52
56825;BME280;42705;50.326;18.772;2023-05-23T05:34:15;98100.02;;;15.57;54.17
56825;BME280;42705;50.326;18.772;2023-05-23T05:39:37;98098.09;;;15.72;54.00
56825;BME280;42705;50.326;18.772;2023-05-23T05:45:00;98099.34;;;15.84;53.93
56825;BME280;42705;50.326;18.772;2023-05-23T05:50:23;98102.10;;;16.01;54.05
56825;BME280;42705;50.326;18.772;2023-05-23T05:55:45;98100.98;;;16.18;53.91
56825;BME280;42705;50.326;18.772;2023-05-23T06:01:07;98101.68;;;16.34;53.84
56825;BME280;42705;50.326;18.772;2023-05-23T06:06:30;98100.87;;;16.48;53.38
56825;BME280;42705;50.326;18.772;2023-05-23T06:11:53;98096.17;;;16.62;53.03
56825;BME280;42705;50.326;18.772;2023-05-23T06:17:15;98093.08;;;16.79;52.97
56825;BME280;42705;50.326;18.772;2023-05-23T06:22:37;98092.85;;;16.92;52.63
56825;BME280;42705;50.326;18.772;2023-05-23T06:27:59;98085.12;;;17.06;52.47
56825;BME280;42705;50.326;18.772;2023-05-23T06:33:21;98082.66;;;17.24;52.36
56825;BME280;42705;50.326;18.772;2023-05-23T06:38:44;98081.70;;;17.40;52.07
56825;BME280;42705;50.326;18.772;2023-05-23T06:44:05;98078.50;;;17.53;52.13
56825;BME280;42705;50.326;18.772;2023-05-23T06:49:27;98076.64;;;17.70;51.89
56825;BME280;42705;50.326;18.772;2023-05-23T06:54:50;98071.06;;;17.87;51.66
56825;BME280;42705;50.326;18.772;2023-05-23T07:00:13;98066.65;;;18.06;51.59
56825;BME280;42705;50.326;18.772;2023-05-23T07:05:45;98066.17;;;18.23;51.31
56825;BME280;42705;50.326;18.772;2023-05-23T07:11:10;98061.70;;;18.39;51.05
56825;BME280;42705;50.326;18.772;2023-05-23T07:16:34;98057.54;;;18.54;50.98
56825;BME280;42705;50.326;18.772;2023-05-23T07:21:58;98055.71;;;18.70;50.69
56825;BME280;42705;50.326;18.772;2023-05-23T07:27:22;98046.35;;;18.85;50.45
56825;BME280;42705;50.326;18.772;2023-05-23T07:32:44;98043.09;;;18.97;50.44
56825;BME280;42705;50.326;18.772;2023-05-23T07:38:07;98040.86;;;19.08;50.18
56825;BME280;42705;50.326;18.772;2023-05-23T07:43:29;98038.57;;;19.14;49.92
56825;BME280;42705;50.326;18.772;2023-05-23T07:48:51;98038.23;;;19.20;49.88
56825;BME280;42705;50.326;18.772;2023-05-23T07:54:13;98037.61;;;19.27;49.80
56825;BME280;42705;50.326;18.772;2023-05-23T07:59:36;98033.64;;;19.31;49.66
56825;BME280;42705;50.326;18.772;2023-05-23T08:04:59;98028.30;;;19.36;49.60
56825;BME280;42705;50.326;18.772;2023-05-23T08:10:21;98023.61;;;19.42;49.29
56825;BME280;42705;50.326;18.772;2023-05-23T08:15:43;98024.98;;;19.48;49.27
56825;BME280;42705;50.326;18.772;2023-05-23T08:21:09;98020.79;;;19.58;49.13
56825;BME280;42705;50.326;18.772;2023-05-23T08:26:31;98019.24;;;19.69;49.15
56825;BME280;42705;50.326;18.772;2023-05-23T08:31:56;98013.52;;;19.81;49.03
56825;BME280;42705;50.326;18.772;2023-05-23T08:37:18;98013.23;;;19.95;48.87
56825;BME280;42705;50.326;18.772;2023-05-23T08:42:40;98009.02;;;20.08;48.42
56825;BME280;42705;50.326;18.772;2023-05-23T08:48:07;98008.57;;;20.22;48.02
56825;BME280;42705;50.326;18.772;2023-05-23T08:53:30;98005.77;;;20.37;47.95
56825;BME280;42705;50.326;18.772;2023-05-23T08:58:58;98007.19;;;20.52;47.68
56825;BME280;42705;50.326;18.772;2023-05-23T09:04:21;98011.02;;;20.65;47.05
56825;BME280;42705;50.326;18.772;2023-05-23T09:09:48;98004.55;;;20.77;46.11
56825;BME280;42705;50.326;18.772;2023-05-23T09:15:11;98006.49;;;20.93;45.92
56825;BME280;42705;50.326;18.772;2023-05-23T09:20:39;98007.90;;;21.11;45.62
56825;BME280;42705;50.326;18.772;2023-05-23T09:26:09;98007.28;;;21.31;45.56
56825;BME280;42705;50.326;18.772;2023-05-23T09:31:32;98010.19;;;21.52;45.15
56825;BME280;42705;50.326;18.772;2023-05-23T09:36:54;98012.14;;;21.70;44.37
56825;BME280;42705;50.326;18.772;2023-05-23T09:42:18;98008.94;;;21.84;44.09
56825;BME280;42705;50.326;18.772;2023-05-23T09:47:53;98004.02;;;22.00;43.85
56825;BME280;42705;50.326;18.772;2023-05-23T09:53:15;97998.01;;;22.17;43.32
56825;BME280;42705;50.326;18.772;2023-05-23T09:58:38;97989.39;;;22.33;42.86
56825;BME280;42705;50.326;18.772;2023-05-23T10:04:02;97983.60;;;22.50;41.99
56825;BME280;42705;50.326;18.772;2023-05-23T10:09:29;97975.80;;;22.65;40.92
56825;BME280;42705;50.326;18.772;2023-05-23T10:14:59;97966.08;;;22.84;40.78
56825;BME280;42705;50.326;18.772;2023-05-23T10:20:29;97960.35;;;23.07;40.39
56825;BME280;42705;50.326;18.772;2023-05-23T10:25:54;97957.04;;;23.34;40.16
56825;BME280;42705;50.326;18.772;2023-05-23T10:31:16;97956.77;;;23.62;40.12
56825;BME280;42705;50.326;18.772;2023-05-23T10:37:09;97956.27;;;23.95;39.65
56825;BME280;42705;50.326;18.772;2023-05-23T10:48:19;97947.23;;;24.65;39.02
56825;BME280;42705;50.326;18.772;2023-05-23T10:53:44;97946.18;;;25.10;38.68
56825;BME280;42705;50.326;18.772;2023-05-23T10:59:06;97944.60;;;25.53;38.00
56825;BME280;42705;50.326;18.772;2023-05-23T11:04:28;97946.89;;;25.97;37.32
56825;BME280;42705;50.326;18.772;2023-05-23T11:10:22;97945.02;;;26.41;37.09
56825;BME280;42705;50.326;18.772;2023-05-23T11:15:44;97934.82;;;26.86;35.45
56825;BME280;42705;50.326;18.772;2023-05-23T11:21:07;97928.89;;;27.10;35.13
56825;BME280;42705;50.326;18.772;2023-05-23T11:26:31;97920.45;;;27.37;34.99
56825;BME280;42705;50.326;18.772;2023-05-23T11:31:54;97916.13;;;27.50;35.07
56825;BME280;42705;50.326;18.772;2023-05-23T11:37:17;97914.71;;;27.23;34.81
56825;BME280;42705;50.326;18.772;2023-05-23T11:42:42;97909.08;;;26.76;35.04
56825;BME280;42705;50.326;18.772;2023-05-23T11:48:08;97912.47;;;26.22;35.00
56825;BME280;42705;50.326;18.772;2023-05-23T11:53:30;97940.65;;;25.60;35.30
56825;BME280;42705;50.326;18.772;2023-05-23T11:58:55;97981.04;;;24.60;36.72
56825;BME280;42705;50.326;18.772;2023-05-23T12:04:17;97997.26;;;23.29;39.32
56825;BME280;42705;50.326;18.772;2023-05-23T12:09:45;98020.39;;;21.97;42.47
56825;BME280;42705;50.326;18.772;2023-05-23T12:15:09;98024.74;;;20.81;45.62
56825;BME280;42705;50.326;18.772;2023-05-23T12:20:32;98033.16;;;19.99;47.71
56825;BME280;42705;50.326;18.772;2023-05-23T12:25:56;98068.14;;;19.03;50.48
56825;BME280;42705;50.326;18.772;2023-05-23T12:31:19;98069.38;;;18.21;52.54
56825;BME280;42705;50.326;18.772;2023-05-23T12:36:42;98082.74;;;17.67;54.83
56825;BME280;42705;50.326;18.772;2023-05-23T12:42:08;98077.66;;;17.30;56.34
56825;BME280;42705;50.326;18.772;2023-05-23T12:47:30;98069.58;;;17.23;57.35
56825;BME280;42705;50.326;18.772;2023-05-23T12:52:52;98054.15;;;17.29;58.11
56825;BME280;42705;50.326;18.772;2023-05-23T12:58:14;98018.22;;;17.40;58.59
56825;BME280;42705;50.326;18.772;2023-05-23T13:03:36;97999.80;;;17.61;58.96
56825;BME280;42705;50.326;18.772;2023-05-23T13:08:58;97986.81;;;17.94;59.33
56825;BME280;42705;50.326;18.772;2023-05-23T13:14:20;97987.77;;;18.24;59.56
56825;BME280;42705;50.326;18.772;2023-05-23T13:19:42;97980.23;;;18.52;59.51
56825;BME280;42705;50.326;18.772;2023-05-23T13:25:04;97969.92;;;18.85;59.63
56825;BME280;42705;50.326;18.772;2023-05-23T13:30:26;97962.98;;;19.09;59.50
56825;BME280;42705;50.326;18.772;2023-05-23T13:35:49;97958.27;;;19.21;59.71
56825;BME280;42705;50.326;18.772;2023-05-23T13:41:11;97957.87;;;19.29;59.90
56825;BME280;42705;50.326;18.772;2023-05-23T13:46:33;97951.57;;;19.57;59.61
56825;BME280;42705;50.326;18.772;2023-05-23T13:51:55;97951.52;;;21.12;58.40
56825;BME280;42705;50.326;18.772;2023-05-23T13:57:17;97956.57;;;21.78;57.50
56825;BME280;42705;50.326;18.772;2023-05-23T14:02:39;97961.13;;;21.70;56.95
56825;BME280;42705;50.326;18.772;2023-05-23T14:08:02;97962.35;;;21.44;56.97
56825;BME280;42705;50.326;18.772;2023-05-23T14:13:25;97959.83;;;21.17;57.21
56825;BME280;42705;50.326;18.772;2023-05-23T14:18:47;97962.71;;;20.87;57.79
56825;BME280;42705;50.326;18.772;2023-05-23T14:24:10;97959.55;;;20.62;58.36
56825;BME280;42705;50.326;18.772;2023-05-23T14:29:32;97962.21;;;20.41;58.84
56825;BME280;42705;50.326;18.772;2023-05-23T14:34:54;97964.27;;;20.32;59.25
56825;BME280;42705;50.326;18.772;2023-05-23T14:40:16;97965.50;;;20.27;59.54
56825;BME280;42705;50.326;18.772;2023-05-23T14:45:38;97966.71;;;20.21;59.71
56825;BME280;42705;50.326;18.772;2023-05-23T14:51:00;97973.86;;;20.09;59.79
56825;BME280;42705;50.326;18.772;2023-05-23T14:56:22;97980.98;;;20.00;60.07
56825;BME280;42705;50.326;18.772;2023-05-23T15:01:44;97975.83;;;20.03;60.34
56825;BME280;42705;50.326;18.772;2023-05-23T15:07:07;97979.77;;;20.07;60.36
56825;BME280;42705;50.326;18.772;2023-05-23T15:12:29;97985.41;;;20.05;60.51
56825;BME280;42705;50.326;18.772;2023-05-23T15:17:51;97996.14;;;19.96;61.03
56825;BME280;42705;50.326;18.772;2023-05-23T15:23:13;97998.83;;;19.84;61.25
56825;BME280;42705;50.326;18.772;2023-05-23T15:28:35;97997.98;;;19.72;61.62
56825;BME280;42705;50.326;18.772;2023-05-23T15:33:57;98001.77;;;19.57;61.91
56825;BME280;42705;50.326;18.772;2023-05-23T15:39:19;98004.89;;;19.47;62.25
56825;BME280;42705;50.326;18.772;2023-05-23T15:44:41;97998.74;;;19.49;62.50
56825;BME280;42705;50.326;18.772;2023-05-23T15:50:04;98000.89;;;19.59;62.57
56825;BME280;42705;50.326;18.772;2023-05-23T15:55:27;98012.26;;;19.68;63.19
56825;BME280;42705;50.326;18.772;2023-05-23T16:00:49;98001.34;;;19.73;62.61
56825;BME280;42705;50.326;18.772;2023-05-23T16:06:11;97993.77;;;19.74;62.27
56825;BME280;42705;50.326;18.772;2023-05-23T16:11:33;97995.69;;;19.74;62.22
56825;BME280;42705;50.326;18.772;2023-05-23T16:16:55;98001.60;;;19.76;62.15
56825;BME280;42705;50.326;18.772;2023-05-23T16:22:17;98001.51;;;19.71;62.12
56825;BME280;42705;50.326;18.772;2023-05-23T16:27:39;97994.77;;;19.69;62.10
56825;BME280;42705;50.326;18.772;2023-05-23T16:33:01;97993.34;;;19.83;62.27
56825;BME280;42705;50.326;18.772;2023-05-23T16:38:23;97988.06;;;19.94;62.46
56825;BME280;42705;50.326;18.772;2023-05-23T16:43:45;97988.92;;;20.02;62.11
56825;BME280;42705;50.326;18.772;2023-05-23T16:49:07;97989.67;;;20.22;61.77
56825;BME280;42705;50.326;18.772;2023-05-23T16:54:29;97981.73;;;20.39;61.31
56825;BME280;42705;50.326;18.772;2023-05-23T16:59:51;97987.21;;;20.49;60.75
56825;BME280;42705;50.326;18.772;2023-05-23T17:05:14;97988.41;;;20.57;60.56
56825;BME280;42705;50.326;18.772;2023-05-23T17:10:36;97984.73;;;20.61;60.51
56825;BME280;42705;50.326;18.772;2023-05-23T17:15:59;97978.95;;;20.58;60.46
56825;BME280;42705;50.326;18.772;2023-05-23T17:21:22;97985.27;;;20.45;60.44
56825;BME280;42705;50.326;18.772;2023-05-23T17:26:45;97985.48;;;20.32;60.88
56825;BME280;42705;50.326;18.772;2023-05-23T17:32:07;97990.92;;;20.17;61.16
56825;BME280;42705;50.326;18.772;2023-05-23T17:37:30;97994.13;;;20.07;61.81
56825;BME280;42705;50.326;18.772;2023-05-23T17:42:53;97996.77;;;20.02;62.20
56825;BME280;42705;50.326;18.772;2023-05-23T17:48:16;97990.20;;;19.94;62.60
56825;BME280;42705;50.326;18.772;2023-05-23T17:53:39;97997.14;;;19.87;62.88
56825;BME280;42705;50.326;18.772;2023-05-23T17:59:03;98006.34;;;19.86;63.34
56825;BME280;42705;50.326;18.772;2023-05-23T18:04:26;98007.99;;;19.83;63.62
56825;BME280;42705;50.326;18.772;2023-05-23T18:09:48;98014.05;;;19.72;63.93
56825;BME280;42705;50.326;18.772;2023-05-23T18:15:11;98016.33;;;19.63;64.27
56825;BME280;42705;50.326;18.772;2023-05-23T18:20:34;98019.10;;;19.61;64.69
56825;BME280;42705;50.326;18.772;2023-05-23T18:25:56;98027.29;;;19.57;65.10
56825;BME280;42705;50.326;18.772;2023-05-23T18:31:19;98031.11;;;19.48;65.28
56825;BME280;42705;50.326;18.772;2023-05-23T18:36:42;98044.08;;;19.42;65.62
56825;BME280;42705;50.326;18.772;2023-05-23T18:42:05;98048.84;;;19.40;65.85
56825;BME280;42705;50.326;18.772;2023-05-23T18:47:28;98055.30;;;19.35;66.12
56825;BME280;42705;50.326;18.772;2023-05-23T18:52:50;98062.15;;;19.27;66.41
56825;BME280;42705;50.326;18.772;2023-05-23T18:58:12;98069.31;;;19.23;66.74
56825;BME280;42705;50.326;18.772;2023-05-23T19:03:35;98069.98;;;19.17;67.02
56825;BME280;42705;50.326;18.772;2023-05-23T19:08:58;98072.30;;;19.08;67.29
56825;BME280;42705;50.326;18.772;2023-05-23T19:14:21;98072.88;;;19.04;67.63
56825;BME280;42705;50.326;18.772;2023-05-23T19:19:43;98072.99;;;19.00;67.86
56825;BME280;42705;50.326;18.772;2023-05-23T19:25:07;98075.42;;;18.95;68.03
56825;BME280;42705;50.326;18.772;2023-05-23T19:30:29;98080.60;;;18.91;68.19
56825;BME280;42705;50.326;18.772;2023-05-23T19:35:52;98084.55;;;18.83;68.23
56825;BME280;42705;50.326;18.772;2023-05-23T19:41:14;98085.55;;;18.71;68.04
56825;BME280;42705;50.326;18.772;2023-05-23T19:46:36;98083.26;;;18.62;68.17
56825;BME280;42705;50.326;18.772;2023-05-23T19:51:59;98087.03;;;18.55;68.36
56825;BME280;42705;50.326;18.772;2023-05-23T19:57:21;98090.03;;;18.47;68.40
56825;BME280;42705;50.326;18.772;2023-05-23T20:02:45;98090.94;;;18.44;68.52
56825;BME280;42705;50.326;18.772;2023-05-23T20:08:08;98093.58;;;18.44;68.66
56825;BME280;42705;50.326;18.772;2023-05-23T20:13:31;98090.15;;;18.42;68.69
56825;BME280;42705;50.326;18.772;2023-05-23T20:18:54;98098.02;;;18.42;68.79
56825;BME280;42705;50.326;18.772;2023-05-23T20:24:16;98099.91;;;18.45;68.84
56825;BME280;42705;50.326;18.772;2023-05-23T20:29:39;98105.50;;;18.46;68.77
56825;BME280;42705;50.326;18.772;2023-05-23T20:35:03;98113.57;;;18.42;68.75
56825;BME280;42705;50.326;18.772;2023-05-23T20:40:25;98122.23;;;18.38;68.88
56825;BME280;42705;50.326;18.772;2023-05-23T20:45:50;98130.84;;;18.28;68.99
56825;BME280;42705;50.326;18.772;2023-05-23T20:51:12;98137.53;;;18.19;69.10
56825;BME280;42705;50.326;18.772;2023-05-23T20:56:34;98139.11;;;18.09;69.35
56825;BME280;42705;50.326;18.772;2023-05-23T21:01:56;98142.44;;;18.04;69.40
56825;BME280;42705;50.326;18.772;2023-05-23T21:07:19;98135.98;;;17.99;69.55
56825;BME280;42705;50.326;18.772;2023-05-23T21:12:40;98138.71;;;18.01;69.83
56825;BME280;42705;50.326;18.772;2023-05-23T21:18:09;98139.37;;;18.00;69.70
56825;BME280;42705;50.326;18.772;2023-05-23T21:23:31;98136.61;;;17.97;69.88
56825;BME280;42705;50.326;18.772;2023-05-23T21:28:53;98136.98;;;17.97;69.96
56825;BME280;42705;50.326;18.772;2023-05-23T21:34:15;98136.35;;;17.92;69.86
56825;BME280;42705;50.326;18.772;2023-05-23T21:39:37;98139.41;;;17.86;69.89
56825;BME280;42705;50.326;18.772;2023-05-23T21:45:00;98145.46;;;17.81;69.91
56825;BME280;42705;50.326;18.772;2023-05-23T21:50:22;98148.73;;;17.76;70.07
56825;BME280;42705;50.326;18.772;2023-05-23T21:55:44;98152.80;;;17.69;69.95
56825;BME280;42705;50.326;18.772;2023-05-23T22:01:06;98154.05;;;17.65;70.06
56825;BME280;42705;50.326;18.772;2023-05-23T22:06:29;98154.77;;;17.60;70.14
56825;BME280;42705;50.326;18.772;2023-05-23T22:11:52;98157.80;;;17.56;70.20
56825;BME280;42705;50.326;18.772;2023-05-23T22:17:14;98168.74;;;17.54;70.30
56825;BME280;42705;50.326;18.772;2023-05-23T22:22:37;98169.18;;;17.54;70.49
56825;BME280;42705;50.326;18.772;2023-05-23T22:27:59;98167.73;;;17.48;70.33
56825;BME280;42705;50.326;18.772;2023-05-23T22:33:22;98171.92;;;17.44;70.37
56825;BME280;42705;50.326;18.772;2023-05-23T22:38:44;98180.44;;;17.40;70.45
56825;BME280;42705;50.326;18.772;2023-05-23T22:44:06;98184.99;;;17.33;70.61
56825;BME280;42705;50.326;18.772;2023-05-23T22:49:28;98185.88;;;17.31;70.73
56825;BME280;42705;50.326;18.772;2023-05-23T22:54:50;98185.89;;;17.24;70.69
56825;BME280;42705;50.326;18.772;2023-05-23T23:00:13;98182.63;;;17.15;70.81
56825;BME280;42705;50.326;18.772;2023-05-23T23:05:35;98181.21;;;17.12;71.13
56825;BME280;42705;50.326;18.772;2023-05-23T23:10:56;98175.32;;;17.12;71.35
56825;BME280;42705;50.326;18.772;2023-05-23T23:16:18;98174.37;;;17.07;71.20
56825;BME280;42705;50.326;18.772;2023-05-23T23:21:41;98172.87;;;17.06;71.37
56825;BME280;42705;50.326;18.772;2023-05-23T23:27:03;98171.38;;;17.09;71.52
56825;BME280;42705;50.326;18.772;2023-05-23T23:32:25;98170.79;;;17.03;71.60
56825;BME280;42705;50.326;18.772;2023-05-23T23:37:47;98169.86;;;16.96;71.73
56825;BME280;42705;50.326;18.772;2023-05-23T23:43:10;98166.27;;;16.92;71.80
56825;BME280;42705;50.326;18.772;2023-05-23T23:48:32;98169.15;;;16.92;71.96
56825;BME280;42705;50.326;18.772;2023-05-23T23:53:54;98170.67;;;16.89;72.08
56825;BME280;42705;50.326;18.772;2023-05-23T23:59:17;98174.80;;;16.86;72.10
